Time;durP1;ratioP1;P1;durP2;ratioP2;P2;SDS_P1;SDS_P2;PMS_P1;PMS_P2;Temp;Humidity;BMP_temperature;BMP_pressure;BME280_temperature;BME280_humidity;BME280_pressure;Samples;Min_cycle;Max_cycle;Signal;HPM_P1;HPM_P2
2021/09/08 00:00:21;;;;;;;2.70;2.03;;;;;;;30.63;23.03;98975.31;5070154;28;20369;-83
2021/09/08 00:02:47;;;;;;;3.08;1.80;;;;;;;30.80;22.81;98968.22;5071198;28;20044;-83
2021/09/08 00:05:13;;;;;;;2.80;2.30;;;;;;;30.80;22.62;98975.94;5051435;28;20107;-83
2021/09/08 00:07:39;;;;;;;3.53;2.05;;;;;;;30.94;22.10;98967.75;5068376;28;20036;-82
2021/09/08 00:10:07;;;;;;;3.38;2.42;;;;;;;31.05;22.42;98978.69;5070773;28;20074;-83
2021/09/08 00:12:34;;;;;;;2.38;1.80;;;;;;;30.89;22.40;98970.38;5069918;28;20025;-83
2021/09/08 00:15:00;;;;;;;3.67;2.17;;;;;;;30.46;22.86;98974.66;5071990;28;20032;-83
2021/09/08 00:17:26;;;;;;;4.90;2.03;;;;;;;30.44;22.93;98979.19;5070885;28;20092;-83
2021/09/08 00:19:52;;;;;;;3.72;2.15;;;;;;;30.66;22.63;98977.22;5070860;28;20492;-83
2021/09/08 00:22:18;;;;;;;2.72;1.90;;;;;;;30.83;22.66;98986.38;5069121;28;20453;-83
2021/09/08 00:24:44;;;;;;;3.08;2.15;;;;;;;30.75;22.62;98980.16;5071896;28;20384;-83
2021/09/08 00:27:10;;;;;;;3.58;2.35;;;;;;;30.84;22.10;98979.44;5072083;28;20032;-83
2021/09/08 00:29:36;;;;;;;2.97;2.22;;;;;;;30.91;22.31;98982.03;5070555;28;20373;-83
2021/09/08 00:32:03;;;;;;;3.42;2.42;;;;;;;31.01;22.28;98978.03;5070433;28;20040;-83
2021/09/08 00:34:29;;;;;;;3.33;1.83;;;;;;;31.02;22.07;98971.09;5070924;28;20029;-83
2021/09/08 00:36:55;;;;;;;6.10;2.67;;;;;;;30.81;22.64;98966.97;5068590;28;20043;-83
2021/09/08 00:39:21;;;;;;;3.42;2.35;;;;;;;30.37;23.11;98973.75;5070112;28;20032;-83
2021/09/08 00:41:48;;;;;;;4.43;2.45;;;;;;;30.31;23.17;98964.25;5069985;28;20039;-83
2021/09/08 00:44:14;;;;;;;3.45;2.20;;;;;;;30.17;23.15;98970.38;5070472;28;20036;-83
2021/09/08 00:46:42;;;;;;;2.25;2.05;;;;;;;30.11;23.06;98970.13;5070251;28;20123;-83
2021/09/08 00:49:09;;;;;;;2.42;1.98;;;;;;;30.24;23.25;98970.94;5053291;28;20028;-83
2021/09/08 00:51:36;;;;;;;2.92;2.08;;;;;;;30.34;22.97;98963.38;5071486;28;20029;-83
2021/09/08 00:54:10;;;;;;;2.92;1.98;;;;;;;30.48;22.58;98974.22;5047829;28;20039;-83
2021/09/08 00:56:36;;;;;;;2.88;2.33;;;;;;;30.62;22.45;98983.00;5072184;28;20528;-83
2021/09/08 00:59:04;;;;;;;3.83;2.42;;;;;;;30.67;22.51;98978.81;5069839;28;20488;-83
2021/09/08 01:01:30;;;;;;;2.72;2.05;;;;;;;30.73;21.91;98977.78;5069121;28;20028;-83
2021/09/08 01:03:56;;;;;;;2.22;1.88;;;;;;;30.55;22.38;98977.59;5071549;28;20025;-83
2021/09/08 01:06:22;;;;;;;4.55;2.50;;;;;;;30.57;21.85;98977.91;5071493;28;20123;-83
2021/09/08 01:08:49;;;;;;;3.50;2.15;;;;;;;30.42;22.20;98988.16;5070329;28;20024;-83
2021/09/08 01:11:20;;;;;;;3.42;2.40;;;;;;;30.22;22.57;98984.78;5070026;28;20036;-83
2021/09/08 01:13:46;;;;;;;3.10;2.30;;;;;;;30.19;22.93;98980.00;5070885;28;20100;-83
2021/09/08 01:16:12;;;;;;;3.33;2.35;;;;;;;29.74;23.77;98985.84;5069850;28;20036;-83
2021/09/08 01:18:38;;;;;;;3.83;2.03;;;;;;;29.80;23.28;98974.81;5068645;28;20032;-84
2021/09/08 01:21:05;;;;;;;3.38;2.33;;;;;;;29.98;22.95;98981.50;5066635;28;20039;-83
2021/09/08 01:23:32;;;;;;;2.85;2.22;;;;;;;30.12;22.80;98971.72;5070249;28;20036;-83
2021/09/08 01:26:03;;;;;;;2.58;1.88;;;;;;;30.17;22.82;98979.66;5070819;28;20531;-83
2021/09/08 01:28:30;;;;;;;3.08;2.33;;;;;;;30.03;23.06;98980.13;5070817;28;20028;-83
2021/09/08 01:30:57;;;;;;;4.28;2.67;;;;;;;29.98;23.27;98973.00;5069726;28;20419;-82
2021/09/08 01:33:24;;;;;;;4.60;2.70;;;;;;;29.99;23.00;98976.63;5070380;28;20476;-82
2021/09/08 01:35:50;;;;;;;4.30;2.65;;;;;;;30.09;22.98;98972.63;5068962;28;20032;-82
2021/09/08 01:38:17;;;;;;;3.17;1.98;;;;;;;30.37;22.45;98974.56;5052047;28;20025;-83
2021/09/08 01:40:43;;;;;;;2.30;1.90;;;;;;;30.43;22.20;98967.09;5071060;28;20032;-83
2021/09/08 01:43:10;;;;;;;3.08;2.20;;;;;;;30.45;22.17;98969.47;5070772;28;20035;-83
2021/09/08 01:45:41;;;;;;;3.38;1.95;;;;;;;30.54;22.01;98972.38;5071226;28;20090;-83
2021/09/08 01:48:08;;;;;;;2.65;2.22;;;;;;;30.56;22.00;98969.88;5071376;28;20115;-83
2021/09/08 01:50:34;;;;;;;2.65;1.75;;;;;;;30.22;22.55;98961.31;5069527;28;20032;-82
2021/09/08 01:53:00;;;;;;;4.38;2.50;;;;;;;30.13;23.23;98967.63;5065557;28;20036;-82
2021/09/08 01:55:27;;;;;;;2.92;2.08;;;;;;;30.07;22.83;98967.44;5070002;28;20036;-83
2021/09/08 01:57:53;;;;;;;2.85;2.00;;;;;;;29.84;22.79;98967.78;5070867;28;20093;-82
2021/09/08 02:00:19;;;;;;;3.70;2.60;;;;;;;29.77;23.04;98970.03;5049131;28;20173;-83
2021/09/08 02:02:45;;;;;;;3.38;2.15;;;;;;;29.80;23.26;98967.06;5052526;28;20041;-83
2021/09/08 02:05:13;;;;;;;3.22;2.08;;;;;;;29.93;23.00;98965.06;5068551;28;20060;-83
2021/09/08 02:07:40;;;;;;;3.15;2.40;;;;;;;30.06;22.70;98971.50;5070124;28;20089;-83
2021/09/08 02:10:07;;;;;;;3.05;2.03;;;;;;;30.04;22.35;98968.34;5069074;28;20036;-83
2021/09/08 02:12:33;;;;;;;3.33;2.42;;;;;;;29.73;22.75;98955.97;5067424;28;20029;-83
2021/09/08 02:14:59;;;;;;;2.88;2.08;;;;;;;29.79;22.72;98959.03;5072526;28;20033;-83
2021/09/08 02:17:25;;;;;;;3.13;2.20;;;;;;;29.85;23.04;98960.84;5074192;28;20487;-82
2021/09/08 02:19:51;;;;;;;4.07;1.95;;;;;;;29.88;22.98;98962.78;5073515;28;20396;-83
2021/09/08 02:22:17;;;;;;;3.05;2.22;;;;;;;29.63;22.98;98964.78;5057082;28;20124;-83
2021/09/08 02:24:43;;;;;;;6.75;2.10;;;;;;;29.70;22.81;98961.72;5068468;28;20040;-83
2021/09/08 02:27:11;;;;;;;3.90;2.03;;;;;;;29.84;23.20;98966.97;5074545;28;20082;-83
2021/09/08 02:29:37;;;;;;;2.22;1.75;;;;;;;29.94;22.76;98960.19;5074725;28;20476;-83
2021/09/08 02:32:04;;;;;;;3.00;2.38;;;;;;;30.08;22.82;98959.75;5056773;28;20033;-83
2021/09/08 02:34:30;;;;;;;2.63;1.73;;;;;;;30.04;22.70;98956.22;5073955;28;20115;-83
2021/09/08 02:36:57;;;;;;;2.67;1.98;;;;;;;29.82;22.99;98952.47;5074180;28;20032;-83
2021/09/08 02:39:23;;;;;;;3.55;2.35;;;;;;;29.55;23.75;98960.56;5074026;28;20357;-83
2021/09/08 02:41:49;;;;;;;3.65;2.20;;;;;;;29.53;23.75;98958.19;5073486;28;20041;-83
2021/09/08 02:44:15;;;;;;;4.05;2.53;;;;;;;29.58;23.46;98956.84;5072940;28;20065;-82
2021/09/08 02:46:41;;;;;;;2.33;1.85;;;;;;;29.48;23.35;98955.16;5074610;28;20029;-83
2021/09/08 02:49:10;;;;;;;3.08;1.95;;;;;;;29.61;23.48;98958.78;5074501;28;20062;-83
2021/09/08 02:51:36;;;;;;;4.28;2.53;;;;;;;29.84;23.62;98944.31;5074445;28;20165;-83
2021/09/08 02:54:03;;;;;;;2.55;2.10;;;;;;;29.92;23.03;98957.03;5074355;28;20021;-83
2021/09/08 02:56:29;;;;;;;2.47;1.85;;;;;;;29.97;22.80;98950.78;5074141;28;20569;-83
2021/09/08 02:58:55;;;;;;;2.47;1.83;;;;;;;30.13;22.71;98953.47;5056456;28;20384;-82
2021/09/08 03:01:21;;;;;;;2.97;2.17;;;;;;;30.19;22.46;98959.38;5073987;28;20036;-83
2021/09/08 03:03:47;;;;;;;4.18;2.42;;;;;;;30.13;22.63;98952.72;5073727;28;20502;-82
2021/09/08 03:06:13;;;;;;;3.85;2.88;;;;;;;30.18;22.93;98952.91;5074897;28;20043;-82
2021/09/08 03:08:39;;;;;;;4.00;2.15;;;;;;;30.11;22.53;98953.13;5073926;28;20044;-82
2021/09/08 03:11:06;;;;;;;4.22;2.50;;;;;;;30.30;22.46;98960.59;5073092;28;20044;-82
2021/09/08 03:13:32;;;;;;;2.63;1.77;;;;;;;30.28;22.45;98963.09;5074108;28;20438;-82
2021/09/08 03:15:58;;;;;;;2.67;1.50;;;;;;;30.24;22.47;98956.78;5053084;28;20400;-82
2021/09/08 03:18:24;;;;;;;3.42;2.25;;;;;;;30.20;22.92;98963.81;5069383;28;20055;-83
2021/09/08 03:20:50;;;;;;;2.35;1.70;;;;;;;29.77;23.83;98958.72;5072906;28;20071;-82
2021/09/08 03:23:17;;;;;;;3.17;2.33;;;;;;;29.74;23.54;98963.19;5073132;28;20029;-82
2021/09/08 03:25:43;;;;;;;3.95;2.85;;;;;;;29.95;23.59;98956.91;5073887;28;20481;-82
2021/09/08 03:28:09;;;;;;;3.88;2.10;;;;;;;30.17;22.73;98965.50;5072198;28;20508;-83
2021/09/08 03:30:35;;;;;;;3.47;2.22;;;;;;;30.19;22.44;98963.00;5071067;28;20044;-82
2021/09/08 03:33:02;;;;;;;2.83;2.33;;;;;;;29.91;22.68;98967.56;5069578;28;20025;-82
2021/09/08 03:35:28;;;;;;;2.65;2.17;;;;;;;29.92;22.61;98959.84;5073916;28;20041;-82
2021/09/08 03:37:54;;;;;;;3.10;2.53;;;;;;;29.96;23.18;98957.69;5073389;28;20443;-83
2021/09/08 03:40:20;;;;;;;4.43;2.22;;;;;;;29.89;23.16;98970.06;5065440;28;20542;-83
2021/09/08 03:42:47;;;;;;;2.55;1.80;;;;;;;29.82;23.15;98958.94;5053447;28;20064;-83
2021/09/08 03:45:14;;;;;;;5.18;3.33;;;;;;;29.90;23.37;98959.50;5073229;28;20518;-82
2021/09/08 03:47:41;;;;;;;3.47;2.08;;;;;;;30.01;23.56;98959.97;5071541;28;20552;-82
2021/09/08 03:50:08;;;;;;;4.22;2.38;;;;;;;29.92;23.45;98962.69;5073609;28;20051;-82
2021/09/08 03:52:34;;;;;;;2.20;1.70;;;;;;;30.06;23.21;98965.03;5073097;28;20025;-82
2021/09/08 03:55:00;;;;;;;2.75;1.85;;;;;;;30.43;22.76;98964.25;5073062;28;20036;-82
2021/09/08 03:57:26;;;;;;;3.45;1.95;;;;;;;30.46;22.32;98968.19;5072897;28;20077;-82
2021/09/08 03:59:52;;;;;;;3.33;2.22;;;;;;;30.63;21.98;98964.75;5073585;28;20032;-82
2021/09/08 04:02:18;;;;;;;2.75;1.60;;;;;;;30.64;22.01;98963.50;5066919;28;20042;-82
2021/09/08 04:04:44;;;;;;;2.42;1.55;;;;;;;30.69;21.57;98965.00;5070550;28;20036;-82
2021/09/08 04:07:10;;;;;;;2.30;1.90;;;;;;;30.55;21.83;98965.47;5063835;28;20029;-82
2021/09/08 04:09:36;;;;;;;3.58;2.05;;;;;;;30.45;21.79;98966.63;5050697;28;20138;-82
2021/09/08 04:12:02;;;;;;;2.00;1.73;;;;;;;30.37;22.11;98974.56;5071913;28;20037;-82
2021/09/08 04:14:28;;;;;;;2.15;1.60;;;;;;;30.12;22.56;98970.94;5069971;28;20056;-83
2021/09/08 04:16:55;;;;;;;3.60;2.33;;;;;;;29.87;23.34;98972.50;5070190;28;20101;-82
2021/09/08 04:19:21;;;;;;;3.03;1.95;;;;;;;29.77;23.48;98981.34;5068196;28;20048;-82
2021/09/08 04:21:47;;;;;;;2.72;2.03;;;;;;;29.72;23.69;98979.06;5068306;28;20032;-83
2021/09/08 04:24:13;;;;;;;2.95;2.28;;;;;;;29.78;24.00;98977.28;5069691;28;20031;-82
2021/09/08 04:26:39;;;;;;;3.28;2.45;;;;;;;29.90;23.97;98973.66;5069898;28;20075;-81
2021/09/08 04:29:05;;;;;;;2.88;2.20;;;;;;;30.24;23.47;98982.28;5065702;28;20519;-82
2021/09/08 04:31:31;;;;;;;2.78;1.70;;;;;;;30.51;22.44;98978.97;5070910;28;20048;-83
2021/09/08 04:33:57;;;;;;;2.97;1.83;;;;;;;30.37;22.42;98979.44;5071319;28;20086;-83
2021/09/08 04:36:23;;;;;;;2.67;2.17;;;;;;;30.33;22.96;98981.59;5070398;28;20035;-83
2021/09/08 04:38:49;;;;;;;2.30;1.92;;;;;;;30.58;22.44;98979.50;5067184;28;20041;-84
2021/09/08 04:41:15;;;;;;;2.53;2.00;;;;;;;30.68;22.64;98981.19;5069955;28;20036;-79
2021/09/08 04:43:41;;;;;;;2.50;1.98;;;;;;;30.95;22.38;98977.06;5072256;28;20067;-82
2021/09/08 04:46:08;;;;;;;2.53;2.03;;;;;;;31.35;22.11;98975.16;5072297;28;20105;-81
2021/09/08 04:48:34;;;;;;;2.50;2.00;;;;;;;31.70;21.42;98979.50;5072437;28;20131;-82
2021/09/08 04:51:01;;;;;;;2.25;1.50;;;;;;;31.98;21.13;98975.56;5071883;28;20037;-83
2021/09/08 04:53:27;;;;;;;3.63;2.20;;;;;;;32.06;20.79;98974.03;5070891;28;20036;-83
2021/09/08 04:55:53;;;;;;;4.32;1.85;;;;;;;31.89;20.98;98974.69;5053399;28;20090;-83
2021/09/08 04:58:19;;;;;;;2.40;1.77;;;;;;;31.84;21.45;98978.94;5072843;28;20538;-83
2021/09/08 05:00:45;;;;;;;1.83;1.65;;;;;;;32.10;20.97;98976.72;5073807;28;20024;-83
2021/09/08 05:03:11;;;;;;;1.90;1.50;;;;;;;32.33;21.22;98973.31;5073328;28;20032;-82
2021/09/08 05:05:37;;;;;;;3.85;2.00;;;;;;;32.35;21.30;98967.19;5074159;28;20033;-82
2021/09/08 05:08:03;;;;;;;2.25;1.98;;;;;;;32.13;21.43;98969.31;5072647;28;20039;-83
2021/09/08 05:10:29;;;;;;;5.18;2.25;;;;;;;31.76;21.76;98982.53;5070607;28;20373;-83
2021/09/08 05:12:55;;;;;;;3.25;2.42;;;;;;;31.59;22.11;98979.13;5070835;28;20041;-83
2021/09/08 05:15:21;;;;;;;2.40;1.85;;;;;;;31.61;22.18;98979.44;5071581;28;20039;-83
2021/09/08 05:17:48;;;;;;;2.53;1.70;;;;;;;31.82;22.14;98978.63;5062669;28;20119;-82
2021/09/08 05:20:14;;;;;;;2.67;2.10;;;;;;;31.77;22.22;98984.91;5071318;28;20374;-83
2021/09/08 05:22:40;;;;;;;3.22;2.10;;;;;;;31.60;22.55;98979.91;5071613;28;20040;-83
2021/09/08 05:25:07;;;;;;;3.08;2.13;;;;;;;31.52;22.89;98987.91;5069896;28;20035;-82
2021/09/08 05:27:33;;;;;;;4.65;2.25;;;;;;;31.62;23.29;98989.56;5072856;28;20040;-83
2021/09/08 05:30:00;;;;;;;3.13;2.33;;;;;;;31.63;23.65;98993.97;5072918;28;20589;-82
2021/09/08 05:32:26;;;;;;;2.08;1.83;;;;;;;31.70;23.72;98990.06;5072869;28;20060;-83
2021/09/08 05:34:55;;;;;;;2.70;2.25;;;;;;;31.71;23.40;98992.44;5073060;28;20029;-82
2021/09/08 05:37:22;;;;;;;2.13;1.92;;;;;;;32.04;23.58;98992.81;5073337;28;20058;-83
2021/09/08 05:39:48;;;;;;;2.88;2.03;;;;;;;32.38;23.72;98991.81;5072799;28;20078;-83
2021/09/08 05:42:14;;;;;;;2.65;2.45;;;;;;;32.27;23.96;98992.25;5073093;28;20028;-83
2021/09/08 05:44:40;;;;;;;3.25;2.13;;;;;;;32.32;23.63;98996.53;5081328;28;20064;-83
2021/09/08 05:47:06;;;;;;;2.88;2.00;;;;;;;32.29;24.27;98997.47;5085791;28;20040;-83
2021/09/08 05:49:32;;;;;;;3.85;2.58;;;;;;;32.47;24.07;98992.63;5076808;28;20039;-83
2021/09/08 05:51:58;;;;;;;3.10;2.03;;;;;;;32.59;24.46;98990.94;5076897;28;20041;-83
2021/09/08 05:54:24;;;;;;;3.53;2.35;;;;;;;32.56;24.32;98994.72;5076594;28;20032;-83
2021/09/08 05:56:50;;;;;;;4.32;3.28;;;;;;;32.55;24.12;98996.78;5076948;28;20025;-82
2021/09/08 05:59:16;;;;;;;5.03;2.55;;;;;;;32.40;24.99;98995.75;5077122;28;20033;-83
2021/09/08 06:01:42;;;;;;;4.20;2.65;;;;;;;32.32;25.48;99003.03;5076847;28;20037;-83
2021/09/08 06:04:09;;;;;;;3.88;3.03;;;;;;;32.33;25.19;98996.06;5076565;28;20032;-83
2021/09/08 06:06:35;;;;;;;3.42;2.97;;;;;;;32.11;25.56;98997.41;5076396;28;20119;-83
2021/09/08 06:09:01;;;;;;;4.63;2.80;;;;;;;32.45;25.11;98997.19;5076045;28;20024;-83
2021/09/08 06:11:27;;;;;;;3.20;2.85;;;;;;;32.01;25.71;99003.06;5076734;28;20033;-83
2021/09/08 06:13:55;;;;;;;5.03;3.85;;;;;;;31.79;26.27;98995.78;5076558;28;20032;-83
2021/09/08 06:16:22;;;;;;;4.57;3.55;;;;;;;31.55;26.40;98995.50;5076599;28;20107;-83
2021/09/08 06:18:48;;;;;;;3.90;3.40;;;;;;;31.53;26.40;99003.69;5076249;28;20502;-84
2021/09/08 06:21:14;;;;;;;4.90;3.63;;;;;;;31.56;26.56;98999.91;5075977;28;20025;-83
2021/09/08 06:23:40;;;;;;;5.32;4.15;;;;;;;31.56;26.95;98999.13;5059325;28;20482;-83
2021/09/08 06:26:06;;;;;;;5.00;3.53;;;;;;;31.96;26.62;98992.28;5076239;28;20036;-83
2021/09/08 06:28:32;;;;;;;5.00;4.03;;;;;;;32.20;26.73;98992.56;5076239;28;20025;-83
2021/09/08 06:30:58;;;;;;;4.00;3.25;;;;;;;32.18;26.53;98994.28;5076329;28;20051;-83
2021/09/08 06:33:24;;;;;;;4.30;3.25;;;;;;;32.13;26.15;98995.69;5076665;28;20039;-83
2021/09/08 06:35:51;;;;;;;6.03;3.92;;;;;;;31.84;27.15;99000.88;5075883;28;20035;-84
2021/09/08 06:38:17;;;;;;;4.85;2.67;;;;;;;32.60;26.53;98992.53;5057089;28;20104;-83
2021/09/08 06:40:43;;;;;;;4.70;3.03;;;;;;;32.88;25.89;98994.16;5076435;28;20427;-83
2021/09/08 06:43:09;;;;;;;4.38;3.47;;;;;;;32.37;26.28;98993.84;5075537;28;20349;-84
2021/09/08 06:45:35;;;;;;;5.13;3.42;;;;;;;32.51;26.88;98992.53;5091989;28;20479;-83
2021/09/08 06:48:01;;;;;;;6.15;3.50;;;;;;;32.39;26.02;98996.25;5096155;28;20391;-84
2021/09/08 06:50:27;;;;;;;5.35;3.28;;;;;;;32.98;25.61;98995.72;5095900;28;20403;-84
2021/09/08 06:52:53;;;;;;;4.68;3.47;;;;;;;31.97;26.75;99004.44;5096174;28;20032;-83
2021/09/08 06:55:19;;;;;;;4.10;2.50;;;;;;;32.97;26.49;98997.00;5086672;28;20031;-84
2021/09/08 06:57:45;;;;;;;3.60;3.13;;;;;;;32.07;26.55;99000.38;5075751;28;20032;-83
2021/09/08 07:00:12;;;;;;;4.32;3.47;;;;;;;32.38;27.28;99000.34;5075206;28;20067;-83
2021/09/08 07:02:38;;;;;;;7.85;3.35;;;;;;;32.28;26.99;98998.75;5075632;28;20035;-84
2021/09/08 07:05:05;;;;;;;5.78;3.78;;;;;;;32.65;26.09;98994.75;5075442;28;20033;-83
2021/09/08 07:07:31;;;;;;;4.32;3.35;;;;;;;32.70;26.86;99002.66;5057685;28;20029;-84
2021/09/08 07:09:57;;;;;;;4.57;3.20;;;;;;;33.04;26.26;98991.03;5075539;28;20032;-84
2021/09/08 07:12:23;;;;;;;4.35;3.20;;;;;;;32.65;26.42;98989.84;5057264;28;20021;-84
2021/09/08 07:14:49;;;;;;;4.32;3.17;;;;;;;33.24;27.06;98997.03;5075320;28;20063;-83
2021/09/08 07:17:15;;;;;;;6.10;3.53;;;;;;;33.67;25.68;98995.91;5075323;28;20040;-84
2021/09/08 07:19:41;;;;;;;4.32;2.78;;;;;;;33.99;25.44;99000.84;5075081;28;20132;-84
2021/09/08 07:22:07;;;;;;;3.13;2.47;;;;;;;33.53;25.89;98999.41;5057266;28;20037;-84
2021/09/08 07:24:33;;;;;;;3.58;3.00;;;;;;;33.62;26.14;99001.44;5075227;28;20111;-83
2021/09/08 07:26:59;;;;;;;4.20;2.60;;;;;;;34.02;25.15;98993.41;5075141;28;20029;-84
2021/09/08 07:29:26;;;;;;;3.28;2.65;;;;;;;34.59;24.58;99003.63;5075100;28;20050;-84
2021/09/08 07:31:52;;;;;;;3.08;2.40;;;;;;;34.94;25.04;99000.25;5074941;28;20032;-83
2021/09/08 07:34:19;;;;;;;3.78;2.92;;;;;;;34.26;25.56;98999.19;5074740;28;20086;-83
2021/09/08 07:36:45;;;;;;;4.80;2.47;;;;;;;34.86;24.49;98994.09;5075077;28;20039;-84
2021/09/08 07:39:11;;;;;;;2.92;2.20;;;;;;;35.34;24.06;99003.41;5074712;28;20021;-84
2021/09/08 07:41:37;;;;;;;3.05;2.38;;;;;;;35.07;24.33;98997.94;5075002;28;20032;-83
2021/09/08 07:44:03;;;;;;;2.50;1.95;;;;;;;34.87;24.24;98995.66;5079676;28;20036;-84
2021/09/08 07:46:29;;;;;;;5.13;2.42;;;;;;;34.90;23.88;99005.31;5084223;28;20036;-84
2021/09/08 07:48:55;;;;;;;3.20;2.17;;;;;;;35.14;24.58;99011.84;5074331;28;20146;-84
2021/09/08 07:51:21;;;;;;;3.90;2.30;;;;;;;35.40;23.53;99004.31;5074177;28;20469;-84
2021/09/08 07:53:47;;;;;;;2.33;1.92;;;;;;;35.83;22.70;99017.88;5074663;28;20064;-84
2021/09/08 07:56:13;;;;;;;2.88;2.35;;;;;;;34.69;24.24;99013.72;5074901;28;20115;-84
2021/09/08 07:58:39;;;;;;;2.75;2.55;;;;;;;34.45;24.80;99012.88;5074251;28;20059;-84
2021/09/08 08:01:06;;;;;;;2.78;2.50;;;;;;;33.50;25.73;99008.06;5074412;28;20032;-84
2021/09/08 08:03:32;;;;;;;2.72;2.47;;;;;;;33.66;24.88;99005.69;5074102;28;20480;-84
2021/09/08 08:05:58;;;;;;;2.65;2.00;;;;;;;34.21;24.58;99002.72;5074630;28;20388;-84
2021/09/08 08:08:24;;;;;;;2.85;2.63;;;;;;;34.27;24.99;99003.63;5074455;28;20039;-84
2021/09/08 08:10:50;;;;;;;3.63;2.65;;;;;;;33.08;26.47;99005.09;5055549;28;20085;-84
2021/09/08 08:13:16;;;;;;;2.55;2.13;;;;;;;34.56;24.87;99003.81;5073937;28;20400;-83
2021/09/08 08:15:42;;;;;;;3.40;2.42;;;;;;;34.66;24.68;99005.31;5074211;28;20437;-84
2021/09/08 08:18:09;;;;;;;2.15;1.95;;;;;;;35.32;24.37;99012.47;5073818;28;20064;-85
2021/09/08 08:20:35;;;;;;;2.20;1.83;;;;;;;35.50;22.92;99014.38;5073772;28;20048;-84
2021/09/08 08:23:02;;;;;;;3.50;2.05;;;;;;;34.38;24.92;99003.91;5073929;28;20024;-84
2021/09/08 08:25:28;;;;;;;3.05;2.28;;;;;;;33.68;26.24;99008.09;5073819;28;20086;-84
2021/09/08 08:27:55;;;;;;;2.38;2.10;;;;;;;33.83;24.55;99008.97;5074251;28;20029;-84
2021/09/08 08:30:23;;;;;;;3.80;2.40;;;;;;;33.48;25.04;99004.91;5073942;28;20111;-84
2021/09/08 08:32:49;;;;;;;3.80;2.95;;;;;;;33.64;24.78;99011.09;5073613;28;20032;-84
2021/09/08 08:35:15;;;;;;;3.97;2.78;;;;;;;34.74;23.93;99006.56;5073901;28;20442;-84
2021/09/08 08:37:42;;;;;;;2.35;2.00;;;;;;;35.09;23.54;99001.09;5073438;28;20070;-84
2021/09/08 08:40:10;;;;;;;2.58;2.38;;;;;;;34.77;23.32;98999.88;5073638;28;20032;-84
2021/09/08 08:42:36;;;;;;;2.33;2.05;;;;;;;35.49;22.69;99006.28;5073757;28;20473;-84
2021/09/08 08:45:05;;;;;;;4.35;2.28;;;;;;;35.19;23.70;99005.47;5086793;28;20062;-84
2021/09/08 08:47:32;;;;;;;3.20;2.50;;;;;;;34.40;24.14;98999.25;5093644;28;20036;-84
2021/09/08 08:49:59;;;;;;;2.53;1.77;;;;;;;35.09;23.35;99001.88;5093840;28;20048;-84
2021/09/08 08:52:26;;;;;;;3.22;2.33;;;;;;;34.99;22.84;98999.53;5093812;28;20066;-84
2021/09/08 08:54:52;;;;;;;2.38;2.17;;;;;;;35.53;21.55;98999.13;5079797;28;20101;-84
2021/09/08 08:57:19;;;;;;;2.97;1.90;;;;;;;36.47;22.12;99002.84;5073421;28;20032;-84
2021/09/08 08:59:46;;;;;;;2.80;1.95;;;;;;;36.06;22.04;99001.91;5073389;28;20023;-84
2021/09/08 09:02:19;;;;;;;2.33;1.73;;;;;;;35.38;21.85;99006.88;5073614;28;20103;-84
2021/09/08 09:04:46;;;;;;;3.17;2.13;;;;;;;35.95;21.31;99005.34;5073462;28;20041;-84
2021/09/08 09:07:27;;;;;;;3.60;2.20;;;;;;;36.34;21.53;98990.91;5073072;28;20484;-84
2021/09/08 09:10:07;;;;;;;2.13;1.70;;;;;;;36.81;20.60;98999.16;5073494;28;20024;-84
2021/09/08 09:12:38;;;;;;;2.28;2.08;;;;;;;37.02;20.04;98999.97;5072564;28;20474;-85
2021/09/08 09:15:05;;;;;;;;;;;;;;;36.44;20.47;98995.22;5036118;28;20037;-84
2021/09/08 09:17:34;;;;;;;1.85;1.48;;;;;;;36.64;20.06;98993.19;5068967;28;19916;-85
2021/09/08 09:20:14;;;;;;;2.10;1.90;;;;;;;36.56;21.28;98992.06;5072978;28;20055;-85
2021/09/08 09:22:42;;;;;;;2.05;1.80;;;;;;;36.52;20.54;98996.41;5073017;28;20036;-85
2021/09/08 09:25:14;;;;;;;1.88;1.63;;;;;;;37.28;20.14;98986.47;5073206;28;20107;-85
2021/09/08 09:27:53;;;;;;;2.15;1.58;;;;;;;37.51;19.65;98999.00;5055046;28;20531;-84
2021/09/08 09:30:26;;;;;;;1.73;1.63;;;;;;;37.72;19.01;98986.16;5073050;28;20024;-85
2021/09/08 09:32:53;;;;;;;2.38;1.70;;;;;;;37.79;18.54;98988.56;5072949;28;20036;-85
2021/09/08 09:35:25;;;;;;;1.83;1.60;;;;;;;38.07;19.76;98995.38;5073173;28;20140;-85
2021/09/08 09:37:57;;;;;;;1.63;1.52;;;;;;;37.45;19.41;98992.41;5072902;28;20044;-85
2021/09/08 09:40:28;;;;;;;1.95;1.40;;;;;;;37.61;19.14;98988.94;5073085;28;20025;-85
2021/09/08 09:42:55;;;;;;;1.83;1.63;;;;;;;37.45;19.73;98978.88;5054804;28;20021;-85
2021/09/08 09:45:21;;;;;;;1.90;1.45;;;;;;;37.68;19.87;98982.75;5076937;28;20032;-85
2021/09/08 09:47:49;;;;;;;2.55;2.28;;;;;;;37.96;18.97;98981.75;5055513;28;20070;-85
2021/09/08 09:50:18;;;;;;;2.13;1.60;;;;;;;37.97;18.71;98968.97;5073294;28;20044;-85
2021/09/08 09:52:48;;;;;;;3.00;1.70;;;;;;;38.44;19.49;98970.38;5055019;28;20111;-85
2021/09/08 09:55:15;;;;;;;;;;;;;;;38.62;18.19;98967.09;5073686;28;20503;-85
2021/09/08 09:57:42;;;;;;;2.00;1.45;;;;;;;38.64;18.06;98961.63;5073146;28;19913;-85
2021/09/08 10:00:08;;;;;;;1.88;1.30;;;;;;;38.87;18.32;98961.75;5072763;28;20430;-85
2021/09/08 10:02:35;;;;;;;1.60;1.42;;;;;;;37.35;18.78;98960.25;5072646;28;20029;-85
2021/09/08 10:05:03;;;;;;;1.55;1.45;;;;;;;36.66;18.80;98958.38;5072775;28;20043;-85
2021/09/08 10:07:29;;;;;;;1.50;1.38;;;;;;;37.56;18.92;98961.00;5072771;28;20487;-85
2021/09/08 10:10:01;;;;;;;1.98;1.80;;;;;;;36.25;20.26;98959.56;5072866;28;20032;-85
2021/09/08 10:12:48;;;;;;;1.80;1.70;;;;;;;36.28;19.49;98953.63;5072801;28;20036;-85
2021/09/08 10:15:16;;;;;;;1.58;1.48;;;;;;;35.84;19.91;98959.44;5072382;28;20107;-85
2021/09/08 10:17:45;;;;;;;2.10;1.90;;;;;;;37.03;19.82;98953.66;5072650;28;20060;-85
2021/09/08 10:20:20;;;;;;;3.92;2.00;;;;;;;37.28;20.25;98954.97;5072509;28;20045;-85
2021/09/08 10:22:47;;;;;;;2.15;1.90;;;;;;;37.71;18.47;98951.00;5072540;28;20399;-85
2021/09/08 10:25:20;;;;;;;1.80;1.70;;;;;;;37.25;19.43;98948.16;5072419;28;20029;-85
2021/09/08 10:27:53;;;;;;;1.95;1.35;;;;;;;38.10;18.82;98942.72;5072362;28;20025;-85
2021/09/08 10:30:23;;;;;;;3.17;1.77;;;;;;;38.52;17.18;98934.16;5072693;28;20413;-85
2021/09/08 10:32:51;;;;;;;1.70;1.60;;;;;;;37.92;18.34;98946.00;5072621;28;20054;-85
2021/09/08 10:35:18;;;;;;;1.55;1.45;;;;;;;36.94;18.69;98950.94;5074396;28;20491;-85
2021/09/08 10:37:49;;;;;;;1.92;1.80;;;;;;;36.41;19.36;98948.34;5075883;28;20035;-85
2021/09/08 10:40:16;;;;;;;2.97;2.22;;;;;;;35.27;21.18;98949.53;5076138;28;20099;-85
2021/09/08 10:42:57;;;;;;;2.50;1.88;;;;;;;36.85;19.72;98939.63;5076484;28;20035;-85
2021/09/08 10:45:26;;;;;;;2.10;1.90;;;;;;;37.12;19.43;98947.78;5096182;28;20036;-85
2021/09/08 10:47:53;;;;;;;2.90;1.70;;;;;;;38.05;18.70;98947.13;5084729;28;20499;-85
2021/09/08 10:50:35;;;;;;;2.10;1.88;;;;;;;38.92;17.95;98932.25;5076128;28;20043;-85
2021/09/08 10:53:21;;;;;;;2.00;1.88;;;;;;;38.91;17.47;98936.44;5075599;28;20056;-85
2021/09/08 10:55:49;;;;;;;1.63;1.52;;;;;;;38.77;17.11;98932.47;5075555;28;20036;-85
2021/09/08 10:58:16;;;;;;;1.75;1.58;;;;;;;38.85;18.23;98932.75;5075589;28;20508;-85
2021/09/08 11:00:43;;;;;;;1.85;1.60;;;;;;;39.30;16.52;98928.75;5057758;28;20028;-85
2021/09/08 11:03:18;;;;;;;2.22;2.03;;;;;;;37.99;17.83;98934.84;5075752;28;20020;-85
2021/09/08 11:05:50;;;;;;;1.70;1.60;;;;;;;37.23;20.19;98929.91;5075537;28;20051;-85
2021/09/08 11:08:24;;;;;;;1.63;1.52;;;;;;;37.01;17.97;98939.06;5075803;28;20028;-85
2021/09/08 11:11:03;;;;;;;2.00;1.77;;;;;;;38.16;17.94;98925.56;5075575;28;20032;-85
2021/09/08 11:13:29;;;;;;;1.73;1.63;;;;;;;38.17;17.55;98927.13;5074665;28;20060;-85
2021/09/08 11:15:55;;;;;;;2.58;1.98;;;;;;;37.32;17.51;98921.94;5075190;28;20032;-85
2021/09/08 11:18:36;;;;;;;2.35;1.70;;;;;;;37.13;18.04;98914.19;5075469;28;20037;-85
2021/09/08 11:21:04;;;;;;;2.20;2.00;;;;;;;37.22;17.85;98923.41;5075301;28;20040;-85
2021/09/08 11:23:32;;;;;;;2.35;1.77;;;;;;;38.29;17.41;98918.13;5075521;28;20025;-85
2021/09/08 11:26:08;;;;;;;2.30;2.10;;;;;;;38.85;17.17;98910.56;5075270;28;20032;-85
2021/09/08 11:28:36;;;;;;;1.70;1.50;;;;;;;38.07;18.01;98917.94;5074921;28;20029;-85
2021/09/08 11:31:15;;;;;;;1.77;1.48;;;;;;;37.51;17.63;98908.06;5055177;28;20032;-85
2021/09/08 11:33:42;;;;;;;1.88;1.77;;;;;;;37.12;17.94;98916.25;5072701;28;20024;-85